createdAt,value
2024-04-11T00:02:06.927Z,99.90
2024-04-11T00:04:33.927Z,99.90
2024-04-11T00:07:00.886Z,99.90
2024-04-11T00:09:28.755Z,99.90
2024-04-11T00:11:55.595Z,99.90
2024-04-11T00:14:22.561Z,99.90
2024-04-11T00:16:49.407Z,99.90
2024-04-11T00:19:16.217Z,99.90
2024-04-11T00:21:43.244Z,99.90
2024-04-11T00:24:10.247Z,99.90
2024-04-11T00:26:37.117Z,99.90
2024-04-11T00:29:03.981Z,99.90
2024-04-11T00:31:30.796Z,99.90
2024-04-11T00:34:14.114Z,99.90
2024-04-11T00:36:44.360Z,99.90
2024-04-11T00:39:19.248Z,99.90
2024-04-11T00:41:49.642Z,99.90
2024-04-11T00:44:18.184Z,99.90
2024-04-11T00:46:53.080Z,99.90
2024-04-11T00:49:39.780Z,99.90
2024-04-11T00:52:08.826Z,99.90
2024-04-11T00:54:37.057Z,99.90
2024-04-11T00:57:08.946Z,99.90
2024-04-11T00:59:37.905Z,99.90
2024-04-11T01:02:05.875Z,99.90
2024-04-11T01:04:36.934Z,99.90
2024-04-11T01:07:11.753Z,99.90
2024-04-11T01:09:44.974Z,99.90
2024-04-11T01:12:13.756Z,99.90
2024-04-11T01:14:45.042Z,99.90
2024-04-11T01:17:15.274Z,99.90
2024-04-11T01:19:48.531Z,99.90
2024-04-11T01:22:15.499Z,99.90
2024-04-11T01:24:42.322Z,99.90
2024-04-11T01:27:10.258Z,99.90
2024-04-11T01:29:39.149Z,99.90
2024-04-11T01:32:07.308Z,99.90
2024-04-11T01:34:34.391Z,99.90
2024-04-11T01:37:01.523Z,99.90
2024-04-11T01:39:28.313Z,99.90
2024-04-11T01:41:55.217Z,99.90
2024-04-11T01:44:22.990Z,99.90
2024-04-11T01:46:50.316Z,99.90
2024-04-11T01:49:17.986Z,99.90
2024-04-11T01:51:44.788Z,99.90
2024-04-11T01:54:13.145Z,99.90
2024-04-11T01:56:40.544Z,99.90
2024-04-11T01:59:07.979Z,99.90
2024-04-11T02:01:37.754Z,99.90
2024-04-11T02:04:11.210Z,99.90
2024-04-11T02:06:39.748Z,99.90
2024-04-11T02:09:11.584Z,99.90
2024-04-11T02:11:47.779Z,99.90
2024-04-11T02:14:14.778Z,99.90
2024-04-11T02:16:41.691Z,99.90
2024-04-11T02:19:08.798Z,99.90
2024-04-11T02:21:39.417Z,99.90
2024-04-11T02:24:07.876Z,99.90
2024-04-11T02:26:36.003Z,99.90
2024-04-11T02:29:05.266Z,99.90
2024-04-11T02:31:35.168Z,99.90
2024-04-11T02:34:03.046Z,99.90
2024-04-11T02:36:30.944Z,99.90
2024-04-11T02:38:59.155Z,99.90
2024-04-11T02:41:28.431Z,99.90
2024-04-11T02:43:56.603Z,99.90
2024-04-11T02:46:23.950Z,99.90
2024-04-11T02:48:50.957Z,99.90
2024-04-11T02:51:21.649Z,99.90
2024-04-11T02:53:48.492Z,99.90
2024-04-11T02:56:15.793Z,99.90
2024-04-11T02:58:42.572Z,99.90
2024-04-11T03:01:11.158Z,99.90
2024-04-11T03:03:39.273Z,99.90
2024-04-11T03:06:13.138Z,99.90
2024-04-11T03:08:42.152Z,99.90
2024-04-11T03:11:10.556Z,99.90
2024-04-11T03:13:38.000Z,99.90
2024-04-11T03:16:05.280Z,99.90
2024-04-11T03:18:35.160Z,99.90
2024-04-11T03:21:03.427Z,99.90
2024-04-11T03:23:31.898Z,99.90
2024-04-11T03:26:02.690Z,99.90
2024-04-11T03:28:29.483Z,99.90
2024-04-11T03:31:06.840Z,99.90
2024-04-11T03:33:34.662Z,99.90
2024-04-11T03:36:07.211Z,99.90
2024-04-11T03:38:35.213Z,99.90
2024-04-11T03:41:04.213Z,99.90
2024-04-11T03:43:35.455Z,99.90
2024-04-11T03:46:10.339Z,99.90
2024-04-11T03:48:37.908Z,99.90
2024-04-11T03:51:24.992Z,99.90
2024-04-11T03:53:57.409Z,99.90
2024-04-11T03:56:25.791Z,99.90
2024-04-11T03:58:53.263Z,99.90
2024-04-11T04:01:23.661Z,99.90
2024-04-11T04:03:55.617Z,99.90
2024-04-11T04:06:22.658Z,99.90
2024-04-11T04:08:50.906Z,99.90
2024-04-11T04:11:21.836Z,99.90
2024-04-11T04:13:49.340Z,99.90
2024-04-11T04:16:18.014Z,99.90
2024-04-11T04:18:49.253Z,99.90
2024-04-11T04:21:17.392Z,99.90
2024-04-11T04:23:45.175Z,99.90
2024-04-11T04:26:15.885Z,99.90
2024-04-11T04:28:42.991Z,99.90
2024-04-11T04:31:21.626Z,99.90
2024-04-11T04:33:54.246Z,99.90
2024-04-11T04:36:30.164Z,99.90
2024-04-11T04:38:58.527Z,99.90
2024-04-11T04:41:30.966Z,99.90
2024-04-11T04:43:59.507Z,99.90
2024-04-11T04:46:30.174Z,99.90
2024-04-11T04:48:58.486Z,99.90
2024-04-11T04:51:28.107Z,99.90
2024-04-11T04:53:55.848Z,99.90
2024-04-11T04:56:24.218Z,99.90
2024-04-11T04:58:52.992Z,99.90
2024-04-11T05:01:22.374Z,99.90
2024-04-11T05:03:51.660Z,99.90
2024-04-11T05:06:18.872Z,99.90
2024-04-11T05:08:50.580Z,99.90
2024-04-11T05:11:17.559Z,99.90
2024-04-11T05:13:48.213Z,99.90
2024-04-11T05:16:21.168Z,99.90
2024-04-11T05:18:53.313Z,99.90
2024-04-11T05:21:24.932Z,99.90
2024-04-11T05:23:52.698Z,99.90
2024-04-11T05:26:26.457Z,99.90
2024-04-11T05:28:55.566Z,99.90
2024-04-11T05:31:27.405Z,99.90
2024-04-11T05:33:56.588Z,99.90
2024-04-11T05:36:26.449Z,99.90
2024-04-11T05:38:53.832Z,99.90
2024-04-11T05:41:21.250Z,99.90
2024-04-11T05:43:51.291Z,99.90
2024-04-11T05:46:23.591Z,99.90
2024-04-11T05:48:51.858Z,99.90
2024-04-11T05:51:20.323Z,99.90
2024-04-11T05:53:47.551Z,99.90
2024-04-11T05:56:15.929Z,99.90
2024-04-11T05:58:46.716Z,99.90
2024-04-11T06:01:17.504Z,99.90
2024-04-11T06:03:51.714Z,99.90
2024-04-11T06:06:21.791Z,99.90
2024-04-11T06:08:49.743Z,99.90
2024-04-11T06:11:18.719Z,99.90
2024-04-11T06:13:48.161Z,99.90
2024-04-11T06:16:16.295Z,99.90
2024-04-11T06:18:45.622Z,99.90
2024-04-11T06:21:13.509Z,99.90
2024-04-11T06:23:40.807Z,99.90
2024-04-11T06:26:14.753Z,99.90
2024-04-11T06:28:41.608Z,99.90
2024-04-11T06:31:10.668Z,99.90
2024-04-11T06:33:42.543Z,99.90
2024-04-11T06:36:14.346Z,99.90
2024-04-11T06:38:42.046Z,99.90
2024-04-11T06:41:10.463Z,99.90
2024-04-11T06:43:42.715Z,99.90
2024-04-11T06:46:12.186Z,99.90
2024-04-11T06:48:40.387Z,99.90
2024-04-11T06:51:08.274Z,99.90
2024-04-11T06:53:35.720Z,99.90
2024-04-11T06:56:08.615Z,99.90
2024-04-11T06:58:37.735Z,99.90
2024-04-11T07:01:05.914Z,99.90
2024-04-11T07:03:33.066Z,99.90
2024-04-11T07:06:11.051Z,99.90
2024-04-11T07:08:39.627Z,99.90
2024-04-11T07:11:26.532Z,99.90
2024-04-11T07:13:57.335Z,99.90
2024-04-11T07:16:41.422Z,99.90
2024-04-11T07:19:09.982Z,99.90
2024-04-11T07:21:39.453Z,99.90
2024-04-11T07:24:07.779Z,99.90
2024-04-11T07:26:35.460Z,99.90
2024-04-11T07:29:05.110Z,99.90
2024-04-11T07:31:38.218Z,99.90
2024-04-11T07:34:05.559Z,99.90
2024-04-11T07:36:39.984Z,99.90
2024-04-11T07:39:10.114Z,99.90
2024-04-11T07:41:46.931Z,99.90
2024-04-11T07:44:19.159Z,99.90
2024-04-11T07:46:56.719Z,99.90
2024-04-11T07:49:35.978Z,99.90
2024-04-11T07:52:03.803Z,99.70
2024-04-11T07:54:38.070Z,99.10
2024-04-11T07:57:12.709Z,99.30
2024-04-11T07:59:39.544Z,97.10
2024-04-11T08:02:07.075Z,96.70
2024-04-11T08:04:33.942Z,97.40
2024-04-11T08:07:00.919Z,97.50
2024-04-11T08:09:42.092Z,96.70
2024-04-11T08:12:09.098Z,95.70
2024-04-11T08:14:35.998Z,96.20
2024-04-11T08:17:05.808Z,94.60
2024-04-11T08:19:38.144Z,93.10
2024-04-11T08:22:08.230Z,91.80
2024-04-11T08:24:38.020Z,90.60
2024-04-11T08:27:05.105Z,89.90
2024-04-11T08:29:32.011Z,90.40
2024-04-11T08:31:58.829Z,88.50
2024-04-11T08:34:26.329Z,83.10
2024-04-11T08:36:54.314Z,82.60
2024-04-11T08:39:23.900Z,82.60
2024-04-11T08:41:52.922Z,82.00
2024-04-11T08:44:20.755Z,80.80
2024-04-11T08:46:47.636Z,74.50
2024-04-11T08:49:14.681Z,71.60
2024-04-11T08:51:44.044Z,74.90
2024-04-11T08:54:12.049Z,74.00
2024-04-11T08:56:38.976Z,73.50
2024-04-11T08:59:09.446Z,72.00
2024-04-11T09:01:36.305Z,68.20
2024-04-11T09:04:04.055Z,67.70
2024-04-11T09:06:33.983Z,65.20
2024-04-11T09:09:13.932Z,63.60
2024-04-11T09:11:43.662Z,62.80
2024-04-11T09:14:13.602Z,62.10
2024-04-11T09:16:40.465Z,63.10
2024-04-11T09:19:11.545Z,61.20
2024-04-11T09:21:46.003Z,61.20
2024-04-11T09:24:20.138Z,63.60
2024-04-11T09:26:48.504Z,62.50
2024-04-11T09:29:20.603Z,61.60
2024-04-11T09:31:49.710Z,61.00
2024-04-11T09:34:21.934Z,58.70
2024-04-11T09:36:50.789Z,57.10
2024-04-11T09:39:42.604Z,56.00
2024-04-11T09:42:20.545Z,55.60
2024-04-11T09:44:50.034Z,56.00
2024-04-11T09:47:28.940Z,54.60
2024-04-11T09:50:05.624Z,54.90
2024-04-11T09:52:36.366Z,56.50
2024-04-11T09:55:09.028Z,56.90
2024-04-11T09:57:38.882Z,56.10
2024-04-11T10:00:19.767Z,56.00
2024-04-11T10:02:54.046Z,53.50
2024-04-11T10:05:24.618Z,53.50
2024-04-11T10:07:59.284Z,55.80
2024-04-11T10:10:31.897Z,54.80
2024-04-11T10:13:02.873Z,53.30
2024-04-11T10:15:30.670Z,53.10
2024-04-11T10:18:06.656Z,53.30
2024-04-11T10:20:44.398Z,52.80
2024-04-11T10:23:17.074Z,50.90
2024-04-11T10:25:50.578Z,50.70
2024-04-11T10:28:19.399Z,52.00
2024-04-11T10:30:52.229Z,49.20
2024-04-11T10:33:31.346Z,49.00
2024-04-11T10:35:59.466Z,49.50
2024-04-11T10:38:28.694Z,50.00
2024-04-11T10:40:57.590Z,50.90
2024-04-11T10:43:25.551Z,50.70
2024-04-11T10:45:52.789Z,50.30
2024-04-11T10:48:21.218Z,48.80
2024-04-11T10:50:49.835Z,49.40
2024-04-11T10:53:22.588Z,48.40
2024-04-11T10:55:50.455Z,49.20
2024-04-11T10:58:23.824Z,49.70
2024-04-11T11:01:04.195Z,48.00
2024-04-11T11:03:43.921Z,46.60
2024-04-11T11:06:36.352Z,46.90
2024-04-11T11:09:14.159Z,45.90
2024-04-11T11:11:42.711Z,43.40
2024-04-11T11:14:10.189Z,45.00
2024-04-11T11:16:39.339Z,46.40
2024-04-11T11:19:09.295Z,46.20
2024-04-11T11:21:41.328Z,43.70
2024-04-11T11:24:08.344Z,43.60
2024-04-11T11:26:44.838Z,45.40
2024-04-11T11:29:13.181Z,46.30
2024-04-11T11:31:42.033Z,46.20
2024-04-11T11:34:12.871Z,44.50
2024-04-11T11:36:49.787Z,44.90
2024-04-11T11:39:26.005Z,43.50
2024-04-11T11:42:12.832Z,42.40
2024-04-11T11:44:59.551Z,38.80
2024-04-11T11:47:34.797Z,39.80
2024-04-11T11:50:02.593Z,40.40
2024-04-11T11:52:32.942Z,40.60
2024-04-11T11:54:59.857Z,40.80
2024-04-11T11:57:33.436Z,40.60
2024-04-11T12:00:00.328Z,40.50
2024-04-11T12:02:27.683Z,41.70
2024-04-11T12:04:54.835Z,42.80
2024-04-11T12:07:26.068Z,41.20
2024-04-11T12:09:57.712Z,40.70
2024-04-11T12:12:31.561Z,40.20
2024-04-11T12:15:06.228Z,41.10
2024-04-11T12:17:33.230Z,40.80
2024-04-11T12:20:06.928Z,39.00
2024-04-11T12:22:36.907Z,40.20
2024-04-11T12:25:04.014Z,41.50
2024-04-11T12:27:31.884Z,41.70
2024-04-11T12:30:00.556Z,41.90
2024-04-11T12:32:27.888Z,40.50
2024-04-11T12:34:57.067Z,39.90
2024-04-11T12:37:27.206Z,37.50
2024-04-11T12:39:57.235Z,37.00
2024-04-11T12:42:31.382Z,37.60
2024-04-11T12:45:01.957Z,37.90
2024-04-11T12:47:55.237Z,38.20
2024-04-11T12:50:25.626Z,38.30
2024-04-11T12:52:52.485Z,38.80
2024-04-11T12:55:25.799Z,35.90
2024-04-11T12:57:54.035Z,37.90
2024-04-11T13:00:39.414Z,38.80
2024-04-11T13:03:16.957Z,38.50
2024-04-11T13:05:53.326Z,38.80
2024-04-11T13:08:31.219Z,37.90
2024-04-11T13:11:08.714Z,36.10
2024-04-11T13:13:40.866Z,36.10
2024-04-11T13:16:11.557Z,35.90
2024-04-11T13:18:40.194Z,36.40
2024-04-11T13:21:15.151Z,35.70
2024-04-11T13:23:45.931Z,35.60
2024-04-11T13:26:17.806Z,36.80
2024-04-11T13:28:50.737Z,36.10
2024-04-11T13:31:21.790Z,37.00
2024-04-11T13:33:50.630Z,35.30
2024-04-11T13:36:17.547Z,35.10
2024-04-11T13:38:50.440Z,35.60
2024-04-11T13:41:32.441Z,35.30
2024-04-11T13:44:01.955Z,36.40
2024-04-11T13:46:35.789Z,35.50
2024-04-11T13:49:21.454Z,36.80
2024-04-11T13:51:54.047Z,34.90
2024-04-11T13:54:24.374Z,35.60
2024-04-11T13:57:01.328Z,35.90
2024-04-11T13:59:32.466Z,35.70
2024-04-11T14:02:00.851Z,35.00
2024-04-11T14:04:48.112Z,35.10
2024-04-11T14:07:24.863Z,35.70
2024-04-11T14:09:52.930Z,34.70
2024-04-11T14:12:26.839Z,35.40
2024-04-11T14:14:53.825Z,34.80
2024-04-11T14:17:29.587Z,33.00
2024-04-11T14:20:32.095Z,33.00
2024-04-11T14:23:37.586Z,31.30
2024-04-11T14:26:07.388Z,29.80
2024-04-11T14:28:44.740Z,27.20
2024-04-11T14:31:11.849Z,26.30
2024-04-11T14:33:58.663Z,24.90
2024-04-11T14:36:28.161Z,23.70
2024-04-11T14:39:08.543Z,23.00
2024-04-11T14:41:37.347Z,22.30
2024-04-11T14:44:09.840Z,21.70
2024-04-11T14:46:37.954Z,21.00
2024-04-11T14:49:06.232Z,20.10
2024-04-11T14:51:41.743Z,19.20
2024-04-11T14:54:17.886Z,18.70
2024-04-11T14:56:49.649Z,19.60
2024-04-11T14:59:16.556Z,20.30
2024-04-11T15:01:54.195Z,19.60
2024-04-11T15:04:22.685Z,19.40
2024-04-11T15:06:52.513Z,19.30
2024-04-11T15:09:30.325Z,19.60
2024-04-11T15:12:00.704Z,19.20
2024-04-11T15:14:33.935Z,19.20
2024-04-11T15:17:27.174Z,20.00
2024-04-11T15:19:54.392Z,20.70
2024-04-11T15:22:25.348Z,21.10
2024-04-11T15:24:53.943Z,21.00
2024-04-11T15:27:21.169Z,19.60
2024-04-11T15:30:07.531Z,19.90
2024-04-11T15:32:38.271Z,20.90
2024-04-11T15:35:10.442Z,22.30
2024-04-11T15:37:56.710Z,22.50
2024-04-11T15:40:24.932Z,22.50
2024-04-11T15:42:57.343Z,22.90
2024-04-11T15:45:30.227Z,23.40
2024-04-11T15:48:01.972Z,24.20
2024-04-11T15:50:35.672Z,24.60
2024-04-11T15:53:07.110Z,24.30
2024-04-11T15:55:49.452Z,25.10
2024-04-11T15:58:25.601Z,26.10
2024-04-11T16:00:54.470Z,26.60
2024-04-11T16:03:22.694Z,26.70
2024-04-11T16:05:58.933Z,26.10
2024-04-11T16:08:25.855Z,26.20
2024-04-11T16:10:56.193Z,26.30
2024-04-11T16:13:28.925Z,26.00
2024-04-11T16:15:59.875Z,26.60
2024-04-11T16:18:27.404Z,27.70
2024-04-11T16:21:00.957Z,28.20
2024-04-11T16:23:28.317Z,29.10
2024-04-11T16:26:13.089Z,29.30
2024-04-11T16:28:40.334Z,30.00
2024-04-11T16:31:13.244Z,31.40
2024-04-11T16:33:42.544Z,32.50
2024-04-11T16:36:14.148Z,34.00
2024-04-11T16:38:54.591Z,34.70
2024-04-11T16:41:22.136Z,34.90
2024-04-11T16:43:55.683Z,34.80
2024-04-11T16:46:27.745Z,35.00
2024-04-11T16:48:55.165Z,36.10
2024-04-11T16:51:26.401Z,36.50
2024-04-11T16:54:19.341Z,36.90
2024-04-11T16:56:50.161Z,38.00
2024-04-11T16:59:33.455Z,38.90
2024-04-11T17:02:10.935Z,39.20
2024-04-11T17:04:46.929Z,39.50
2024-04-11T17:07:17.087Z,38.90
2024-04-11T17:09:45.488Z,38.10
2024-04-11T17:12:18.647Z,37.80
2024-04-11T17:14:54.803Z,38.30
2024-04-11T17:17:30.368Z,39.10
2024-04-11T17:20:16.304Z,40.20
2024-04-11T17:22:59.237Z,40.80
2024-04-11T17:25:33.888Z,42.10
2024-04-11T17:28:01.372Z,42.90
2024-04-11T17:30:55.299Z,44.00
2024-04-11T17:33:32.476Z,45.50
2024-04-11T17:35:59.736Z,45.90
2024-04-11T17:38:47.982Z,46.70
2024-04-11T17:41:26.639Z,47.70
2024-04-11T17:43:57.519Z,48.50
2024-04-11T17:46:28.248Z,49.00
2024-04-11T17:49:08.704Z,49.20
2024-04-11T17:51:35.575Z,49.70
2024-04-11T17:54:06.202Z,50.40
2024-04-11T17:56:36.156Z,50.90
2024-04-11T17:59:04.493Z,51.40
2024-04-11T18:01:32.977Z,52.60
2024-04-11T18:04:00.394Z,52.80
2024-04-11T18:06:40.244Z,53.00
2024-04-11T18:09:10.886Z,53.50
2024-04-11T18:11:48.223Z,54.40
2024-04-11T18:14:15.565Z,55.90
2024-04-11T18:16:53.638Z,56.40
2024-04-11T18:19:23.813Z,57.10
2024-04-11T18:21:52.520Z,58.00
2024-04-11T18:24:20.301Z,58.50
2024-04-11T18:26:47.410Z,58.80
2024-04-11T18:29:17.227Z,59.10
2024-04-11T18:31:49.401Z,59.70
2024-04-11T18:34:16.371Z,60.00
2024-04-11T18:36:44.980Z,60.70
2024-04-11T18:39:13.906Z,60.80
2024-04-11T18:41:50.100Z,60.40
2024-04-11T18:44:23.163Z,60.10
2024-04-11T18:47:19.253Z,60.50
2024-04-11T18:49:46.972Z,61.40
2024-04-11T18:52:14.392Z,61.40
2024-04-11T18:54:45.104Z,61.70
2024-04-11T18:57:13.881Z,61.60
2024-04-11T18:59:42.854Z,61.50
2024-04-11T19:02:10.114Z,61.80
2024-04-11T19:04:46.196Z,62.20
2024-04-11T19:07:13.985Z,62.10
2024-04-11T19:09:53.949Z,62.20
2024-04-11T19:12:25.125Z,62.20
2024-04-11T19:14:53.636Z,62.60
2024-04-11T19:17:24.701Z,63.50
2024-04-11T19:19:59.032Z,64.20
2024-04-11T19:22:26.149Z,64.50
2024-04-11T19:24:56.413Z,64.80
2024-04-11T19:27:24.021Z,64.50
2024-04-11T19:29:54.948Z,64.50
2024-04-11T19:32:28.005Z,64.70
2024-04-11T19:34:58.093Z,65.00
2024-04-11T19:37:25.078Z,65.50
2024-04-11T19:39:58.833Z,66.20
2024-04-11T19:42:30.818Z,66.70
2024-04-11T19:45:01.298Z,67.20
2024-04-11T19:47:28.330Z,67.50
2024-04-11T19:50:07.325Z,67.80
2024-04-11T19:52:34.525Z,68.20
2024-04-11T19:55:21.350Z,69.00
2024-04-11T19:57:52.006Z,69.60
2024-04-11T20:00:40.260Z,69.80
2024-04-11T20:03:26.709Z,69.90
2024-04-11T20:05:57.352Z,70.80
2024-04-11T20:08:32.502Z,71.10
2024-04-11T20:11:11.832Z,71.60
2024-04-11T20:13:48.373Z,71.60
2024-04-11T20:16:24.216Z,72.40
2024-04-11T20:18:55.212Z,73.00
2024-04-11T20:21:28.024Z,73.70
2024-04-11T20:24:03.157Z,73.90
2024-04-11T20:26:31.427Z,74.10
2024-04-11T20:29:04.839Z,74.50
2024-04-11T20:31:34.779Z,74.50
2024-04-11T20:34:07.917Z,74.70
2024-04-11T20:36:39.053Z,74.80
2024-04-11T20:39:15.119Z,75.30
2024-04-11T20:41:58.276Z,75.50
2024-04-11T20:44:41.617Z,76.10
2024-04-11T20:47:11.363Z,77.50
2024-04-11T20:49:44.227Z,77.20
2024-04-11T20:52:31.191Z,77.60
2024-04-11T20:55:16.769Z,78.30
2024-04-11T20:58:02.559Z,78.70
2024-04-11T21:00:48.076Z,78.80
2024-04-11T21:03:33.648Z,79.10
2024-04-11T21:06:22.374Z,79.20
2024-04-11T21:09:08.219Z,79.50
2024-04-11T21:11:54.513Z,80.00
2024-04-11T21:14:39.890Z,81.70
2024-04-11T21:17:25.577Z,82.30
2024-04-11T21:20:11.359Z,82.90
2024-04-11T21:22:57.415Z,83.70
2024-04-11T21:25:43.562Z,84.30
2024-04-11T21:28:29.161Z,84.50
2024-04-11T21:31:15.281Z,84.80
2024-04-11T21:33:49.567Z,85.70
2024-04-11T21:36:20.368Z,86.50
2024-04-11T21:38:48.726Z,87.70
2024-04-11T21:41:37.346Z,90.00
2024-04-11T21:44:05.738Z,90.00
2024-04-11T21:46:36.433Z,90.10
2024-04-11T21:49:03.711Z,90.50
2024-04-11T21:51:34.672Z,90.80
2024-04-11T21:54:03.211Z,91.00
2024-04-11T21:56:33.432Z,91.20
2024-04-11T21:59:01.364Z,91.40
2024-04-11T22:01:46.863Z,91.80
2024-04-11T22:04:20.408Z,92.30
2024-04-11T22:06:57.838Z,92.60
2024-04-11T22:09:26.014Z,92.60
2024-04-11T22:12:00.135Z,92.70
2024-04-11T22:14:34.149Z,92.70
2024-04-11T22:17:02.276Z,93.00
2024-04-11T22:19:34.888Z,93.40
2024-04-11T22:22:15.200Z,93.90
2024-04-11T22:24:47.252Z,94.10
2024-04-11T22:27:16.006Z,94.10
2024-04-11T22:29:47.337Z,94.10
2024-04-11T22:32:15.142Z,94.30
2024-04-11T22:34:45.433Z,94.50
2024-04-11T22:37:23.885Z,95.10
2024-04-11T22:39:52.156Z,95.40
2024-04-11T22:42:20.747Z,95.90
2024-04-11T22:44:51.106Z,96.30
2024-04-11T22:47:19.179Z,96.90
2024-04-11T22:49:47.219Z,97.10
2024-04-11T22:52:33.030Z,97.30
2024-04-11T22:55:07.655Z,97.40
2024-04-11T22:57:38.748Z,97.80
2024-04-11T23:00:28.534Z,97.90
2024-04-11T23:02:57.720Z,98.00
2024-04-11T23:05:25.215Z,98.80
2024-04-11T23:07:58.866Z,99.20
2024-04-11T23:10:39.544Z,99.90
2024-04-11T23:13:11.545Z,99.90
2024-04-11T23:16:01.204Z,99.90
2024-04-11T23:18:40.991Z,99.90
2024-04-11T23:21:11.028Z,99.90
2024-04-11T23:23:41.917Z,99.90
2024-04-11T23:26:18.501Z,99.90
2024-04-11T23:28:47.509Z,99.90
2024-04-11T23:31:15.659Z,99.90
2024-04-11T23:33:55.846Z,99.90
2024-04-11T23:36:23.006Z,99.90
2024-04-11T23:38:51.079Z,99.90
2024-04-11T23:41:25.796Z,99.90
2024-04-11T23:43:56.046Z,99.90
2024-04-11T23:46:31.862Z,99.90
2024-04-11T23:49:06.290Z,99.90
2024-04-11T23:51:46.906Z,99.90
2024-04-11T23:54:19.605Z,99.90
2024-04-11T23:56:48.966Z,99.90
2024-04-11T23:59:16.204Z,99.90
